Terminal Aerodrome Forecast
Issued by NWS

Home | Current Version | Previous Version | Text Only | Print | Product List | Glossary On
Versions: 1 2 3 4 5 6 7 8 9 10 11 12 13 14 15 16 17 18
000
FTUS42 KGSP 292320
TAFAND
TAF
KAND 292320Z 3000/3024 24005KT P6SM FEW060 SCT110
      TEMPO 3000/3002 VRB10G17KT 4SM -TSRA BKN050CB
     FM300200 24005KT P6SM SCT070
     FM301800 25008KT P6SM SCT080 PROB30 3021/3024 4SM -TSRA
      BKN080CB=

USA.gov is the U.S. government's official web portal to all federal, state and local government web resources and services.